sensor_id;sensor_type;location;lat;lon;timestamp;P1;durP1;ratioP1;P2;durP2;ratioP2
64543;SDS011;50936;51.660;5.616;2023-04-03T00:01:04;11.50;;;5.43;;
64543;SDS011;50936;51.660;5.616;2023-04-03T00:03:32;9.50;;;4.95;;
64543;SDS011;50936;51.660;5.616;2023-04-03T00:06:00;9.07;;;4.93;;
64543;SDS011;50936;51.660;5.616;2023-04-03T00:08:27;10.82;;;5.95;;
64543;SDS011;50936;51.660;5.616;2023-04-03T00:10:56;8.35;;;5.10;;
64543;SDS011;50936;51.660;5.616;2023-04-03T00:13:24;8.48;;;5.55;;
64543;SDS011;50936;51.660;5.616;2023-04-03T00:15:51;10.25;;;5.22;;
64543;SDS011;50936;51.660;5.616;2023-04-03T00:18:18;9.27;;;5.22;;
64543;SDS011;50936;51.660;5.616;2023-04-03T00:20:46;8.27;;;5.00;;
64543;SDS011;50936;51.660;5.616;2023-04-03T00:23:13;10.82;;;5.15;;
64543;SDS011;50936;51.660;5.616;2023-04-03T00:25:41;9.13;;;5.07;;
64543;SDS011;50936;51.660;5.616;2023-04-03T00:28:08;12.40;;;5.72;;
64543;SDS011;50936;51.660;5.616;2023-04-03T00:30:36;8.52;;;5.28;;
64543;SDS011;50936;51.660;5.616;2023-04-03T00:33:04;8.95;;;5.65;;
64543;SDS011;50936;51.660;5.616;2023-04-03T00:35:31;8.70;;;5.63;;
64543;SDS011;50936;51.660;5.616;2023-04-03T00:37:58;9.73;;;5.43;;
64543;SDS011;50936;51.660;5.616;2023-04-03T00:40:25;8.75;;;5.50;;
64543;SDS011;50936;51.660;5.616;2023-04-03T00:42:58;10.45;;;5.63;;
64543;SDS011;50936;51.660;5.616;2023-04-03T00:45:27;9.90;;;5.13;;
64543;SDS011;50936;51.660;5.616;2023-04-03T00:48:03;9.18;;;5.18;;
64543;SDS011;50936;51.660;5.616;2023-04-03T00:50:34;9.65;;;5.25;;
64543;SDS011;50936;51.660;5.616;2023-04-03T00:53:06;10.40;;;5.57;;
64543;SDS011;50936;51.660;5.616;2023-04-03T00:55:39;10.75;;;5.97;;
64543;SDS011;50936;51.660;5.616;2023-04-03T00:58:08;11.23;;;5.50;;
64543;SDS011;50936;51.660;5.616;2023-04-03T01:00:37;9.73;;;5.18;;
64543;SDS011;50936;51.660;5.616;2023-04-03T01:03:09;10.65;;;5.35;;
64543;SDS011;50936;51.660;5.616;2023-04-03T01:05:37;10.68;;;5.50;;
64543;SDS011;50936;51.660;5.616;2023-04-03T01:08:05;9.25;;;5.80;;
64543;SDS011;50936;51.660;5.616;2023-04-03T01:10:33;8.80;;;5.25;;
64543;SDS011;50936;51.660;5.616;2023-04-03T01:12:59;10.65;;;5.60;;
64543;SDS011;50936;51.660;5.616;2023-04-03T01:15:27;12.90;;;5.75;;
64543;SDS011;50936;51.660;5.616;2023-04-03T01:18:01;11.10;;;5.78;;
64543;SDS011;50936;51.660;5.616;2023-04-03T01:25:44;10.45;;;5.38;;
64543;SDS011;50936;51.660;5.616;2023-04-03T01:28:16;11.48;;;5.20;;
64543;SDS011;50936;51.660;5.616;2023-04-03T01:30:59;9.57;;;4.97;;
64543;SDS011;50936;51.660;5.616;2023-04-03T01:33:46;11.02;;;5.20;;
64543;SDS011;50936;51.660;5.616;2023-04-03T01:36:15;8.60;;;4.90;;
64543;SDS011;50936;51.660;5.616;2023-04-03T01:38:47;8.50;;;5.15;;
64543;SDS011;50936;51.660;5.616;2023-04-03T01:41:15;8.93;;;4.30;;
64543;SDS011;50936;51.660;5.616;2023-04-03T01:43:44;14.63;;;4.90;;
64543;SDS011;50936;51.660;5.616;2023-04-03T01:46:10;10.20;;;4.70;;
64543;SDS011;50936;51.660;5.616;2023-04-03T01:48:37;9.50;;;4.45;;
64543;SDS011;50936;51.660;5.616;2023-04-03T01:51:04;9.50;;;4.47;;
64543;SDS011;50936;51.660;5.616;2023-04-03T01:53:32;9.35;;;4.40;;
64543;SDS011;50936;51.660;5.616;2023-04-03T01:55:59;14.30;;;3.65;;
64543;SDS011;50936;51.660;5.616;2023-04-03T01:58:26;10.60;;;4.72;;
64543;SDS011;50936;51.660;5.616;2023-04-03T02:00:53;10.48;;;4.85;;
64543;SDS011;50936;51.660;5.616;2023-04-03T02:03:20;9.65;;;4.05;;
64543;SDS011;50936;51.660;5.616;2023-04-03T02:05:49;8.15;;;4.20;;
64543;SDS011;50936;51.660;5.616;2023-04-03T02:08:16;8.07;;;4.32;;
64543;SDS011;50936;51.660;5.616;2023-04-03T02:10:47;10.82;;;4.75;;
64543;SDS011;50936;51.660;5.616;2023-04-03T02:13:16;10.52;;;5.43;;
64543;SDS011;50936;51.660;5.616;2023-04-03T02:15:44;8.65;;;4.28;;
64543;SDS011;50936;51.660;5.616;2023-04-03T02:18:14;7.00;;;4.35;;
64543;SDS011;50936;51.660;5.616;2023-04-03T02:20:41;7.00;;;3.85;;
64543;SDS011;50936;51.660;5.616;2023-04-03T02:23:10;9.43;;;4.05;;
64543;SDS011;50936;51.660;5.616;2023-04-03T02:25:37;7.35;;;3.83;;
64543;SDS011;50936;51.660;5.616;2023-04-03T02:28:04;10.27;;;3.58;;
64543;SDS011;50936;51.660;5.616;2023-04-03T02:30:32;8.10;;;4.07;;
64543;SDS011;50936;51.660;5.616;2023-04-03T02:32:59;8.70;;;3.70;;
64543;SDS011;50936;51.660;5.616;2023-04-03T02:35:26;8.43;;;3.97;;
64543;SDS011;50936;51.660;5.616;2023-04-03T02:37:55;8.23;;;3.80;;
64543;SDS011;50936;51.660;5.616;2023-04-03T02:40:23;8.73;;;3.63;;
64543;SDS011;50936;51.660;5.616;2023-04-03T02:42:51;4.88;;;2.83;;
64543;SDS011;50936;51.660;5.616;2023-04-03T02:45:18;7.88;;;3.75;;
64543;SDS011;50936;51.660;5.616;2023-04-03T02:47:46;7.18;;;3.38;;
64543;SDS011;50936;51.660;5.616;2023-04-03T02:50:13;9.73;;;3.90;;
64543;SDS011;50936;51.660;5.616;2023-04-03T02:52:40;10.57;;;3.72;;
64543;SDS011;50936;51.660;5.616;2023-04-03T02:55:07;7.10;;;3.42;;
64543;SDS011;50936;51.660;5.616;2023-04-03T02:57:34;7.03;;;3.17;;
64543;SDS011;50936;51.660;5.616;2023-04-03T03:00:02;9.10;;;3.50;;
64543;SDS011;50936;51.660;5.616;2023-04-03T03:02:29;7.85;;;3.17;;
64543;SDS011;50936;51.660;5.616;2023-04-03T03:04:56;7.25;;;3.50;;
64543;SDS011;50936;51.660;5.616;2023-04-03T03:07:23;8.60;;;3.40;;
64543;SDS011;50936;51.660;5.616;2023-04-03T03:09:50;5.55;;;2.85;;
64543;SDS011;50936;51.660;5.616;2023-04-03T03:12:17;6.80;;;3.53;;
64543;SDS011;50936;51.660;5.616;2023-04-03T03:14:48;10.52;;;3.33;;
64543;SDS011;50936;51.660;5.616;2023-04-03T03:17:15;8.07;;;2.88;;
64543;SDS011;50936;51.660;5.616;2023-04-03T03:19:44;6.82;;;2.97;;
64543;SDS011;50936;51.660;5.616;2023-04-03T03:22:12;6.95;;;3.10;;
64543;SDS011;50936;51.660;5.616;2023-04-03T03:24:39;8.93;;;2.90;;
64543;SDS011;50936;51.660;5.616;2023-04-03T03:27:05;7.57;;;3.28;;
64543;SDS011;50936;51.660;5.616;2023-04-03T03:29:32;7.15;;;3.13;;
64543;SDS011;50936;51.660;5.616;2023-04-03T03:32:00;10.40;;;3.05;;
64543;SDS011;50936;51.660;5.616;2023-04-03T03:34:27;6.03;;;2.90;;
64543;SDS011;50936;51.660;5.616;2023-04-03T03:36:54;8.20;;;3.10;;
64543;SDS011;50936;51.660;5.616;2023-04-03T03:39:22;6.72;;;3.33;;
64543;SDS011;50936;51.660;5.616;2023-04-03T03:41:49;5.50;;;2.88;;
64543;SDS011;50936;51.660;5.616;2023-04-03T03:44:16;7.40;;;2.83;;
64543;SDS011;50936;51.660;5.616;2023-04-03T03:46:43;6.47;;;2.75;;
64543;SDS011;50936;51.660;5.616;2023-04-03T03:49:11;6.50;;;2.80;;
64543;SDS011;50936;51.660;5.616;2023-04-03T03:51:39;8.10;;;2.55;;
64543;SDS011;50936;51.660;5.616;2023-04-03T03:54:07;6.05;;;2.83;;
64543;SDS011;50936;51.660;5.616;2023-04-03T03:56:34;5.90;;;2.58;;
64543;SDS011;50936;51.660;5.616;2023-04-03T03:59:01;5.70;;;2.80;;
64543;SDS011;50936;51.660;5.616;2023-04-03T04:01:30;6.28;;;2.85;;
64543;SDS011;50936;51.660;5.616;2023-04-03T04:03:58;8.57;;;3.65;;
64543;SDS011;50936;51.660;5.616;2023-04-03T04:06:29;7.30;;;2.92;;
64543;SDS011;50936;51.660;5.616;2023-04-03T04:09:00;7.82;;;3.00;;
64543;SDS011;50936;51.660;5.616;2023-04-03T04:11:28;5.22;;;2.63;;
64543;SDS011;50936;51.660;5.616;2023-04-03T04:13:56;10.07;;;2.55;;
64543;SDS011;50936;51.660;5.616;2023-04-03T04:16:25;6.50;;;2.85;;
64543;SDS011;50936;51.660;5.616;2023-04-03T04:18:54;8.57;;;3.00;;
64543;SDS011;50936;51.660;5.616;2023-04-03T04:21:22;8.85;;;2.92;;
64543;SDS011;50936;51.660;5.616;2023-04-03T04:23:51;6.32;;;2.88;;
64543;SDS011;50936;51.660;5.616;2023-04-03T04:26:18;6.30;;;2.47;;
64543;SDS011;50936;51.660;5.616;2023-04-03T04:28:46;6.60;;;2.83;;
64543;SDS011;50936;51.660;5.616;2023-04-03T04:31:14;7.45;;;2.55;;
64543;SDS011;50936;51.660;5.616;2023-04-03T04:33:41;4.18;;;2.50;;
64543;SDS011;50936;51.660;5.616;2023-04-03T04:36:10;7.97;;;2.70;;
64543;SDS011;50936;51.660;5.616;2023-04-03T04:38:37;7.22;;;2.33;;
64543;SDS011;50936;51.660;5.616;2023-04-03T04:41:06;9.70;;;2.75;;
64543;SDS011;50936;51.660;5.616;2023-04-03T04:43:34;7.00;;;2.72;;
64543;SDS011;50936;51.660;5.616;2023-04-03T04:46:08;8.77;;;2.78;;
64543;SDS011;50936;51.660;5.616;2023-04-03T04:48:43;5.93;;;2.42;;
64543;SDS011;50936;51.660;5.616;2023-04-03T04:51:12;7.47;;;2.88;;
64543;SDS011;50936;51.660;5.616;2023-04-03T04:53:40;6.07;;;2.60;;
64543;SDS011;50936;51.660;5.616;2023-04-03T04:56:12;6.78;;;2.88;;
64543;SDS011;50936;51.660;5.616;2023-04-03T04:58:41;5.90;;;2.75;;
64543;SDS011;50936;51.660;5.616;2023-04-03T05:01:08;8.63;;;2.60;;
64543;SDS011;50936;51.660;5.616;2023-04-03T05:03:45;8.05;;;3.05;;
64543;SDS011;50936;51.660;5.616;2023-04-03T05:06:15;6.30;;;2.67;;
64543;SDS011;50936;51.660;5.616;2023-04-03T05:08:42;5.13;;;2.80;;
64543;SDS011;50936;51.660;5.616;2023-04-03T05:11:09;3.10;;;2.13;;
64543;SDS011;50936;51.660;5.616;2023-04-03T05:13:37;3.78;;;1.90;;
64543;SDS011;50936;51.660;5.616;2023-04-03T05:16:05;5.28;;;2.35;;
64543;SDS011;50936;51.660;5.616;2023-04-03T05:18:32;5.82;;;2.47;;
64543;SDS011;50936;51.660;5.616;2023-04-03T05:21:04;5.80;;;2.03;;
64543;SDS011;50936;51.660;5.616;2023-04-03T05:23:31;6.85;;;2.53;;
64543;SDS011;50936;51.660;5.616;2023-04-03T05:26:01;5.07;;;1.92;;
64543;SDS011;50936;51.660;5.616;2023-04-03T05:28:29;7.35;;;3.08;;
64543;SDS011;50936;51.660;5.616;2023-04-03T05:30:56;6.38;;;2.63;;
64543;SDS011;50936;51.660;5.616;2023-04-03T05:33:30;4.63;;;1.88;;
64543;SDS011;50936;51.660;5.616;2023-04-03T05:36:01;3.58;;;1.83;;
64543;SDS011;50936;51.660;5.616;2023-04-03T05:38:36;6.72;;;2.60;;
64543;SDS011;50936;51.660;5.616;2023-04-03T05:41:03;5.30;;;2.15;;
64543;SDS011;50936;51.660;5.616;2023-04-03T05:43:30;4.30;;;2.08;;
64543;SDS011;50936;51.660;5.616;2023-04-03T05:45:57;7.90;;;2.40;;
64543;SDS011;50936;51.660;5.616;2023-04-03T05:48:26;3.90;;;1.92;;
64543;SDS011;50936;51.660;5.616;2023-04-03T05:50:53;5.28;;;2.13;;
64543;SDS011;50936;51.660;5.616;2023-04-03T05:53:26;6.65;;;2.80;;
64543;SDS011;50936;51.660;5.616;2023-04-03T05:55:59;4.35;;;2.13;;
64543;SDS011;50936;51.660;5.616;2023-04-03T05:58:29;7.38;;;2.47;;
64543;SDS011;50936;51.660;5.616;2023-04-03T06:00:56;6.38;;;2.33;;
64543;SDS011;50936;51.660;5.616;2023-04-03T06:03:24;8.63;;;2.70;;
64543;SDS011;50936;51.660;5.616;2023-04-03T06:05:52;5.07;;;1.90;;
64543;SDS011;50936;51.660;5.616;2023-04-03T06:08:19;4.13;;;1.80;;
64543;SDS011;50936;51.660;5.616;2023-04-03T06:10:46;4.50;;;2.08;;
64543;SDS011;50936;51.660;5.616;2023-04-03T06:13:14;5.68;;;2.05;;
64543;SDS011;50936;51.660;5.616;2023-04-03T06:15:41;5.80;;;2.58;;
64543;SDS011;50936;51.660;5.616;2023-04-03T06:18:08;5.20;;;2.10;;
64543;SDS011;50936;51.660;5.616;2023-04-03T06:20:36;5.55;;;2.20;;
64543;SDS011;50936;51.660;5.616;2023-04-03T06:23:03;7.50;;;2.40;;
64543;SDS011;50936;51.660;5.616;2023-04-03T06:25:33;4.47;;;2.10;;
64543;SDS011;50936;51.660;5.616;2023-04-03T06:28:01;5.95;;;2.10;;
64543;SDS011;50936;51.660;5.616;2023-04-03T06:30:28;6.57;;;2.83;;
64543;SDS011;50936;51.660;5.616;2023-04-03T06:32:54;4.78;;;2.05;;
64543;SDS011;50936;51.660;5.616;2023-04-03T06:35:22;7.13;;;2.25;;
64543;SDS011;50936;51.660;5.616;2023-04-03T06:37:50;5.47;;;2.28;;
64543;SDS011;50936;51.660;5.616;2023-04-03T06:40:18;5.53;;;2.20;;
64543;SDS011;50936;51.660;5.616;2023-04-03T06:42:50;3.80;;;1.92;;
64543;SDS011;50936;51.660;5.616;2023-04-03T06:45:18;7.95;;;2.17;;
64543;SDS011;50936;51.660;5.616;2023-04-03T06:47:45;4.85;;;2.05;;
64543;SDS011;50936;51.660;5.616;2023-04-03T06:50:12;9.07;;;2.05;;
64543;SDS011;50936;51.660;5.616;2023-04-03T06:52:41;5.07;;;2.10;;
64543;SDS011;50936;51.660;5.616;2023-04-03T06:55:08;4.72;;;2.05;;
64543;SDS011;50936;51.660;5.616;2023-04-03T06:57:36;6.22;;;2.00;;
64543;SDS011;50936;51.660;5.616;2023-04-03T07:00:04;5.93;;;2.10;;
64543;SDS011;50936;51.660;5.616;2023-04-03T07:02:33;4.18;;;1.70;;
64543;SDS011;50936;51.660;5.616;2023-04-03T07:05:00;4.07;;;2.03;;
64543;SDS011;50936;51.660;5.616;2023-04-03T07:07:27;4.97;;;1.70;;
64543;SDS011;50936;51.660;5.616;2023-04-03T07:09:54;5.97;;;1.83;;
64543;SDS011;50936;51.660;5.616;2023-04-03T07:12:21;5.13;;;2.00;;
64543;SDS011;50936;51.660;5.616;2023-04-03T07:14:47;4.53;;;1.90;;
64543;SDS011;50936;51.660;5.616;2023-04-03T07:17:15;3.58;;;1.52;;
64543;SDS011;50936;51.660;5.616;2023-04-03T07:19:42;4.68;;;1.92;;
64543;SDS011;50936;51.660;5.616;2023-04-03T07:22:08;6.10;;;2.33;;
64543;SDS011;50936;51.660;5.616;2023-04-03T07:24:37;7.22;;;1.80;;
64543;SDS011;50936;51.660;5.616;2023-04-03T07:27:04;4.72;;;2.00;;
64543;SDS011;50936;51.660;5.616;2023-04-03T07:29:31;4.05;;;1.90;;
64543;SDS011;50936;51.660;5.616;2023-04-03T07:31:58;3.65;;;1.42;;
64543;SDS011;50936;51.660;5.616;2023-04-03T07:34:25;4.78;;;2.00;;
64543;SDS011;50936;51.660;5.616;2023-04-03T07:36:52;4.32;;;1.70;;
64543;SDS011;50936;51.660;5.616;2023-04-03T07:39:19;4.68;;;1.90;;
64543;SDS011;50936;51.660;5.616;2023-04-03T07:41:46;6.80;;;2.42;;
64543;SDS011;50936;51.660;5.616;2023-04-03T07:44:13;3.25;;;1.63;;
64543;SDS011;50936;51.660;5.616;2023-04-03T07:46:40;5.47;;;1.67;;
64543;SDS011;50936;51.660;5.616;2023-04-03T07:49:08;3.97;;;1.85;;
64543;SDS011;50936;51.660;5.616;2023-04-03T07:51:35;5.10;;;1.67;;
64543;SDS011;50936;51.660;5.616;2023-04-03T07:54:02;5.82;;;1.63;;
64543;SDS011;50936;51.660;5.616;2023-04-03T07:56:30;4.68;;;1.60;;
64543;SDS011;50936;51.660;5.616;2023-04-03T07:58:58;3.88;;;1.52;;
64543;SDS011;50936;51.660;5.616;2023-04-03T08:01:24;5.78;;;1.50;;
64543;SDS011;50936;51.660;5.616;2023-04-03T08:03:51;2.78;;;1.55;;
64543;SDS011;50936;51.660;5.616;2023-04-03T08:06:18;3.63;;;1.58;;
64543;SDS011;50936;51.660;5.616;2023-04-03T08:09:03;4.45;;;1.58;;
64543;SDS011;50936;51.660;5.616;2023-04-03T08:11:30;4.80;;;1.48;;
64543;SDS011;50936;51.660;5.616;2023-04-03T08:13:58;3.05;;;1.20;;
64543;SDS011;50936;51.660;5.616;2023-04-03T08:16:24;7.47;;;1.90;;
64543;SDS011;50936;51.660;5.616;2023-04-03T08:18:53;6.57;;;1.95;;
64543;SDS011;50936;51.660;5.616;2023-04-03T08:21:21;4.40;;;1.30;;
64543;SDS011;50936;51.660;5.616;2023-04-03T08:23:49;2.60;;;1.23;;
64543;SDS011;50936;51.660;5.616;2023-04-03T08:26:22;2.88;;;1.20;;
64543;SDS011;50936;51.660;5.616;2023-04-03T08:28:49;1.67;;;0.90;;
64543;SDS011;50936;51.660;5.616;2023-04-03T08:31:17;3.35;;;1.30;;
64543;SDS011;50936;51.660;5.616;2023-04-03T08:33:46;2.95;;;1.50;;
64543;SDS011;50936;51.660;5.616;2023-04-03T08:36:19;4.03;;;1.30;;
64543;SDS011;50936;51.660;5.616;2023-04-03T08:38:48;2.50;;;1.20;;
64543;SDS011;50936;51.660;5.616;2023-04-03T08:49:58;2.47;;;0.95;;
64543;SDS011;50936;51.660;5.616;2023-04-03T08:52:52;3.42;;;1.30;;
64543;SDS011;50936;51.660;5.616;2023-04-03T08:58:06;4.47;;;1.17;;
64543;SDS011;50936;51.660;5.616;2023-04-03T09:00:49;2.15;;;0.80;;
64543;SDS011;50936;51.660;5.616;2023-04-03T09:03:29;5.05;;;1.00;;
64543;SDS011;50936;51.660;5.616;2023-04-03T09:06:19;2.92;;;0.90;;
64543;SDS011;50936;51.660;5.616;2023-04-03T09:09:02;2.45;;;1.00;;
64543;SDS011;50936;51.660;5.616;2023-04-03T09:12:24;3.53;;;1.08;;
64543;SDS011;50936;51.660;5.616;2023-04-03T09:18:21;2.88;;;1.15;;
64543;SDS011;50936;51.660;5.616;2023-04-03T09:21:05;2.38;;;0.70;;
64543;SDS011;50936;51.660;5.616;2023-04-03T09:24:12;1.13;;;0.57;;
64543;SDS011;50936;51.660;5.616;2023-04-03T09:26:53;4.00;;;1.10;;
64543;SDS011;50936;51.660;5.616;2023-04-03T09:29:26;4.75;;;1.33;;
64543;SDS011;50936;51.660;5.616;2023-04-03T09:31:58;2.90;;;1.00;;
64543;SDS011;50936;51.660;5.616;2023-04-03T09:34:32;2.15;;;0.90;;
64543;SDS011;50936;51.660;5.616;2023-04-03T09:37:03;1.70;;;0.50;;
64543;SDS011;50936;51.660;5.616;2023-04-03T09:39:51;1.05;;;0.75;;
64543;SDS011;50936;51.660;5.616;2023-04-03T09:42:21;0.75;;;0.50;;
64543;SDS011;50936;51.660;5.616;2023-04-03T09:45:01;2.33;;;0.75;;
64543;SDS011;50936;51.660;5.616;2023-04-03T09:47:32;2.03;;;0.80;;
64543;SDS011;50936;51.660;5.616;2023-04-03T09:52:42;1.00;;;0.60;;
64543;SDS011;50936;51.660;5.616;2023-04-03T09:55:15;0.95;;;0.63;;
64543;SDS011;50936;51.660;5.616;2023-04-03T09:57:54;1.55;;;0.85;;
64543;SDS011;50936;51.660;5.616;2023-04-03T10:00:34;1.80;;;0.60;;
64543;SDS011;50936;51.660;5.616;2023-04-03T10:03:04;3.05;;;0.80;;
64543;SDS011;50936;51.660;5.616;2023-04-03T10:05:54;1.38;;;0.52;;
64543;SDS011;50936;51.660;5.616;2023-04-03T10:08:25;1.35;;;0.63;;
64543;SDS011;50936;51.660;5.616;2023-04-03T10:13:53;3.47;;;0.65;;
64543;SDS011;50936;51.660;5.616;2023-04-03T10:16:38;1.65;;;0.80;;
64543;SDS011;50936;51.660;5.616;2023-04-03T10:22:16;1.60;;;0.70;;
64543;SDS011;50936;51.660;5.616;2023-04-03T10:25:07;0.90;;;0.52;;
64543;SDS011;50936;51.660;5.616;2023-04-03T10:28:03;1.23;;;0.75;;
64543;SDS011;50936;51.660;5.616;2023-04-03T10:30:55;1.23;;;0.50;;
64543;SDS011;50936;51.660;5.616;2023-04-03T10:33:44;0.60;;;0.50;;
64543;SDS011;50936;51.660;5.616;2023-04-03T10:53:53;2.92;;;1.00;;
64543;SDS011;50936;51.660;5.616;2023-04-03T10:56:52;1.83;;;0.70;;
64543;SDS011;50936;51.660;5.616;2023-04-03T10:59:45;0.65;;;0.57;;
64543;SDS011;50936;51.660;5.616;2023-04-03T11:04:59;1.95;;;0.63;;
64543;SDS011;50936;51.660;5.616;2023-04-03T11:07:39;0.47;;;0.32;;
64543;SDS011;50936;51.660;5.616;2023-04-03T11:10:17;2.85;;;0.68;;
64543;SDS011;50936;51.660;5.616;2023-04-03T11:13:08;1.30;;;0.60;;
64543;SDS011;50936;51.660;5.616;2023-04-03T11:15:43;1.65;;;0.73;;
64543;SDS011;50936;51.660;5.616;2023-04-03T11:18:17;2.20;;;1.08;;
64543;SDS011;50936;51.660;5.616;2023-04-03T11:21:39;0.75;;;0.50;;
64543;SDS011;50936;51.660;5.616;2023-04-03T11:23:56;1.35;;;0.70;;
64543;SDS011;50936;51.660;5.616;2023-04-03T11:26:29;2.40;;;0.82;;
64543;SDS011;50936;51.660;5.616;2023-04-03T11:29:14;8.50;;;0.80;;
64543;SDS011;50936;51.660;5.616;2023-04-03T11:34:52;2.17;;;0.70;;
64543;SDS011;50936;51.660;5.616;2023-04-03T11:37:35;2.10;;;0.80;;
64543;SDS011;50936;51.660;5.616;2023-04-03T11:40:18;1.13;;;0.68;;
64543;SDS011;50936;51.660;5.616;2023-04-03T11:43:03;1.60;;;0.73;;
64543;SDS011;50936;51.660;5.616;2023-04-03T11:45:55;2.30;;;0.90;;
64543;SDS011;50936;51.660;5.616;2023-04-03T11:53:49;1.48;;;0.77;;
64543;SDS011;50936;51.660;5.616;2023-04-03T12:01:46;2.38;;;0.80;;
64543;SDS011;50936;51.660;5.616;2023-04-03T12:04:19;3.58;;;1.30;;
64543;SDS011;50936;51.660;5.616;2023-04-03T12:07:11;2.97;;;1.08;;
64543;SDS011;50936;51.660;5.616;2023-04-03T12:15:11;2.00;;;1.25;;
64543;SDS011;50936;51.660;5.616;2023-04-03T12:23:25;3.22;;;1.23;;
64543;SDS011;50936;51.660;5.616;2023-04-03T12:26:05;3.38;;;0.93;;
64543;SDS011;50936;51.660;5.616;2023-04-03T12:28:50;2.67;;;0.95;;
64543;SDS011;50936;51.660;5.616;2023-04-03T12:31:20;1.77;;;0.98;;
64543;SDS011;50936;51.660;5.616;2023-04-03T12:36:58;2.97;;;1.23;;
64543;SDS011;50936;51.660;5.616;2023-04-03T12:39:36;5.72;;;1.25;;
64543;SDS011;50936;51.660;5.616;2023-04-03T12:47:45;3.15;;;1.02;;
64543;SDS011;50936;51.660;5.616;2023-04-03T12:50:24;3.53;;;1.30;;
64543;SDS011;50936;51.660;5.616;2023-04-03T12:55:38;4.18;;;1.33;;
64543;SDS011;50936;51.660;5.616;2023-04-03T12:58:21;2.05;;;0.77;;
64543;SDS011;50936;51.660;5.616;2023-04-03T13:01:26;7.82;;;1.50;;
64543;SDS011;50936;51.660;5.616;2023-04-03T13:03:57;2.45;;;1.00;;
64543;SDS011;50936;51.660;5.616;2023-04-03T13:06:43;2.88;;;1.02;;
64543;SDS011;50936;51.660;5.616;2023-04-03T13:09:21;3.42;;;1.20;;
64543;SDS011;50936;51.660;5.616;2023-04-03T13:12:04;2.67;;;1.00;;
64543;SDS011;50936;51.660;5.616;2023-04-03T13:14:39;4.65;;;1.20;;
64543;SDS011;50936;51.660;5.616;2023-04-03T13:17:12;4.80;;;1.10;;
64543;SDS011;50936;51.660;5.616;2023-04-03T13:19:42;4.55;;;1.08;;
64543;SDS011;50936;51.660;5.616;2023-04-03T13:24:53;2.80;;;0.93;;
64543;SDS011;50936;51.660;5.616;2023-04-03T13:27:24;2.65;;;1.10;;
64543;SDS011;50936;51.660;5.616;2023-04-03T13:29:53;3.08;;;0.93;;
64543;SDS011;50936;51.660;5.616;2023-04-03T13:32:25;4.43;;;1.40;;
64543;SDS011;50936;51.660;5.616;2023-04-03T13:34:55;2.70;;;1.15;;
64543;SDS011;50936;51.660;5.616;2023-04-03T13:37:32;3.80;;;1.50;;
64543;SDS011;50936;51.660;5.616;2023-04-03T13:42:36;2.15;;;1.30;;
64543;SDS011;50936;51.660;5.616;2023-04-03T13:48:08;1.92;;;1.33;;
64543;SDS011;50936;51.660;5.616;2023-04-03T13:50:54;3.85;;;1.10;;
64543;SDS011;50936;51.660;5.616;2023-04-03T13:53:30;6.68;;;1.40;;
64543;SDS011;50936;51.660;5.616;2023-04-03T13:58:30;3.28;;;1.20;;
64543;SDS011;50936;51.660;5.616;2023-04-03T14:01:18;4.82;;;1.30;;
64543;SDS011;50936;51.660;5.616;2023-04-03T14:04:00;3.85;;;1.23;;
64543;SDS011;50936;51.660;5.616;2023-04-03T14:06:45;2.53;;;1.20;;
64543;SDS011;50936;51.660;5.616;2023-04-03T14:09:13;2.45;;;1.20;;
64543;SDS011;50936;51.660;5.616;2023-04-03T14:11:43;5.18;;;1.55;;
64543;SDS011;50936;51.660;5.616;2023-04-03T14:14:14;3.30;;;0.93;;
64543;SDS011;50936;51.660;5.616;2023-04-03T14:16:54;3.60;;;1.15;;
64543;SDS011;50936;51.660;5.616;2023-04-03T14:19:28;2.47;;;1.23;;
64543;SDS011;50936;51.660;5.616;2023-04-03T14:22:05;2.30;;;0.82;;
64543;SDS011;50936;51.660;5.616;2023-04-03T14:24:48;5.10;;;1.30;;
64543;SDS011;50936;51.660;5.616;2023-04-03T14:27:22;5.45;;;1.95;;
64543;SDS011;50936;51.660;5.616;2023-04-03T14:29:56;2.35;;;1.17;;
64543;SDS011;50936;51.660;5.616;2023-04-03T14:32:25;3.58;;;1.45;;
64543;SDS011;50936;51.660;5.616;2023-04-03T14:34:53;4.72;;;1.08;;
64543;SDS011;50936;51.660;5.616;2023-04-03T14:37:24;4.40;;;1.35;;
64543;SDS011;50936;51.660;5.616;2023-04-03T14:39:56;4.07;;;1.33;;
64543;SDS011;50936;51.660;5.616;2023-04-03T14:42:29;1.80;;;1.10;;
64543;SDS011;50936;51.660;5.616;2023-04-03T14:45:06;3.05;;;1.30;;
64543;SDS011;50936;51.660;5.616;2023-04-03T14:47:40;6.80;;;1.63;;
64543;SDS011;50936;51.660;5.616;2023-04-03T14:50:15;3.38;;;1.23;;
64543;SDS011;50936;51.660;5.616;2023-04-03T14:52:50;3.65;;;1.48;;
64543;SDS011;50936;51.660;5.616;2023-04-03T14:55:21;2.17;;;1.30;;
64543;SDS011;50936;51.660;5.616;2023-04-03T14:57:52;4.25;;;1.77;;
64543;SDS011;50936;51.660;5.616;2023-04-03T15:00:21;2.53;;;1.10;;
64543;SDS011;50936;51.660;5.616;2023-04-03T15:02:49;2.92;;;1.23;;
64543;SDS011;50936;51.660;5.616;2023-04-03T15:05:17;2.45;;;1.00;;
64543;SDS011;50936;51.660;5.616;2023-04-03T15:07:50;2.08;;;1.15;;
64543;SDS011;50936;51.660;5.616;2023-04-03T15:10:22;4.80;;;1.00;;
64543;SDS011;50936;51.660;5.616;2023-04-03T15:12:54;3.58;;;1.65;;
64543;SDS011;50936;51.660;5.616;2023-04-03T15:15:22;3.22;;;1.20;;
64543;SDS011;50936;51.660;5.616;2023-04-03T15:17:51;3.33;;;1.15;;
64543;SDS011;50936;51.660;5.616;2023-04-03T15:20:22;2.10;;;1.25;;
64543;SDS011;50936;51.660;5.616;2023-04-03T15:22:54;4.25;;;1.20;;
64543;SDS011;50936;51.660;5.616;2023-04-03T15:25:23;1.90;;;1.15;;
64543;SDS011;50936;51.660;5.616;2023-04-03T15:27:52;3.35;;;1.50;;
64543;SDS011;50936;51.660;5.616;2023-04-03T15:30:23;3.70;;;1.50;;
64543;SDS011;50936;51.660;5.616;2023-04-03T15:32:50;4.70;;;1.55;;
64543;SDS011;50936;51.660;5.616;2023-04-03T15:35:17;2.55;;;1.20;;
64543;SDS011;50936;51.660;5.616;2023-04-03T15:37:44;2.05;;;1.10;;
64543;SDS011;50936;51.660;5.616;2023-04-03T15:40:11;2.30;;;1.20;;
64543;SDS011;50936;51.660;5.616;2023-04-03T15:42:39;3.08;;;1.30;;
64543;SDS011;50936;51.660;5.616;2023-04-03T15:45:07;4.05;;;1.13;;
64543;SDS011;50936;51.660;5.616;2023-04-03T15:47:35;2.35;;;1.20;;
64543;SDS011;50936;51.660;5.616;2023-04-03T15:50:02;5.78;;;1.33;;
64543;SDS011;50936;51.660;5.616;2023-04-03T15:52:33;4.05;;;1.20;;
64543;SDS011;50936;51.660;5.616;2023-04-03T15:55:03;3.83;;;1.40;;
64543;SDS011;50936;51.660;5.616;2023-04-03T15:57:31;3.50;;;1.20;;
64543;SDS011;50936;51.660;5.616;2023-04-03T16:00:03;3.72;;;1.00;;
64543;SDS011;50936;51.660;5.616;2023-04-03T16:02:32;3.80;;;1.20;;
64543;SDS011;50936;51.660;5.616;2023-04-03T16:05:00;4.43;;;1.35;;
64543;SDS011;50936;51.660;5.616;2023-04-03T16:07:27;4.05;;;1.48;;
64543;SDS011;50936;51.660;5.616;2023-04-03T16:09:54;7.65;;;1.33;;
64543;SDS011;50936;51.660;5.616;2023-04-03T16:12:21;5.90;;;1.25;;
64543;SDS011;50936;51.660;5.616;2023-04-03T16:14:48;5.95;;;1.42;;
64543;SDS011;50936;51.660;5.616;2023-04-03T16:17:15;2.70;;;1.30;;
64543;SDS011;50936;51.660;5.616;2023-04-03T16:19:42;3.92;;;1.30;;
64543;SDS011;50936;51.660;5.616;2023-04-03T16:22:09;4.53;;;1.50;;
64543;SDS011;50936;51.660;5.616;2023-04-03T16:24:36;5.82;;;1.90;;
64543;SDS011;50936;51.660;5.616;2023-04-03T16:27:04;1.42;;;0.98;;
64543;SDS011;50936;51.660;5.616;2023-04-03T16:29:31;3.67;;;1.38;;
64543;SDS011;50936;51.660;5.616;2023-04-03T16:31:58;4.03;;;1.27;;
64543;SDS011;50936;51.660;5.616;2023-04-03T16:34:28;2.58;;;1.15;;
64543;SDS011;50936;51.660;5.616;2023-04-03T16:36:57;8.13;;;1.30;;
64543;SDS011;50936;51.660;5.616;2023-04-03T16:39:24;3.80;;;1.30;;
64543;SDS011;50936;51.660;5.616;2023-04-03T16:41:50;2.80;;;1.63;;
64543;SDS011;50936;51.660;5.616;2023-04-03T16:44:17;5.18;;;1.50;;
64543;SDS011;50936;51.660;5.616;2023-04-03T16:46:45;5.50;;;1.77;;